createdAt,value
2023-05-01T00:02:52.196Z,2.26
2023-05-01T00:07:59.542Z,2.18
2023-05-01T00:13:07.266Z,2.11
2023-05-01T00:18:14.818Z,2.05
2023-05-01T00:23:22.387Z,1.99
2023-05-01T00:28:29.883Z,1.93
2023-05-01T00:33:37.404Z,1.88
2023-05-01T00:38:44.845Z,1.82
2023-05-01T00:43:52.496Z,1.76
2023-05-01T00:49:00.856Z,1.70
2023-05-01T00:54:09.416Z,1.64
2023-05-01T00:59:16.918Z,1.74
2023-05-01T01:04:24.904Z,2.12
2023-05-01T01:09:41.376Z,2.20
2023-05-01T01:14:57.549Z,2.23
2023-05-01T01:20:39.974Z,2.26
2023-05-01T01:25:53.186Z,2.30
2023-05-01T01:31:19.538Z,2.33
2023-05-01T01:36:36.776Z,2.34
2023-05-01T01:41:50.042Z,2.35
2023-05-01T01:46:58.447Z,2.36
2023-05-01T01:52:08.448Z,2.37
2023-05-01T01:57:18.367Z,2.37
2023-05-01T02:02:29.096Z,2.36
2023-05-01T02:07:37.447Z,2.35
2023-05-01T02:12:46.669Z,2.35
2023-05-01T02:17:55.724Z,2.33
2023-05-01T02:23:04.606Z,2.30
2023-05-01T02:28:15.067Z,2.28
2023-05-01T02:33:22.574Z,2.25
2023-05-01T02:38:30.813Z,2.22
2023-05-01T02:43:40.467Z,2.19
2023-05-01T02:48:50.138Z,2.15
2023-05-01T02:53:58.495Z,2.12
2023-05-01T02:59:06.126Z,2.10
2023-05-01T03:04:13.701Z,2.08
2023-05-01T03:09:21.312Z,2.05
2023-05-01T03:14:29.088Z,2.02
2023-05-01T03:19:37.532Z,1.99
2023-05-01T03:24:44.984Z,1.96
2023-05-01T03:29:52.814Z,1.94
2023-05-01T03:35:00.433Z,1.93
2023-05-01T03:40:09.254Z,1.93
2023-05-01T03:45:35.412Z,1.97
2023-05-01T03:50:43.338Z,2.03
2023-05-01T03:55:50.730Z,2.11
2023-05-01T04:01:01.435Z,2.20
2023-05-01T04:06:09.671Z,2.30
2023-05-01T04:11:17.205Z,2.41
2023-05-01T04:16:25.271Z,2.52
2023-05-01T04:21:32.725Z,2.64
2023-05-01T04:26:40.049Z,2.77
2023-05-01T04:31:47.527Z,2.91
2023-05-01T04:36:54.878Z,3.08
2023-05-01T04:42:02.726Z,3.27
2023-05-01T04:47:10.501Z,3.51
2023-05-01T04:52:18.125Z,3.77
2023-05-01T04:57:35.295Z,4.09
2023-05-01T05:02:45.024Z,4.62
2023-05-01T05:07:53.410Z,5.01
2023-05-01T05:13:12.050Z,5.34
2023-05-01T05:18:20.260Z,5.71
2023-05-01T05:23:28.091Z,6.10
2023-05-01T05:28:36.225Z,6.46
2023-05-01T05:33:45.185Z,6.80
2023-05-01T05:38:53.613Z,7.13
2023-05-01T05:44:02.233Z,7.47
2023-05-01T05:49:10.170Z,7.79
2023-05-01T05:54:17.977Z,8.08
2023-05-01T05:59:25.990Z,8.37
2023-05-01T06:04:33.753Z,8.60
2023-05-01T06:09:41.862Z,8.82
2023-05-01T06:14:49.776Z,9.05
2023-05-01T06:19:58.165Z,9.27
2023-05-01T06:25:07.430Z,9.50
2023-05-01T06:30:16.814Z,9.73
2023-05-01T06:35:24.865Z,9.87
2023-05-01T06:40:35.297Z,9.79
2023-05-01T06:45:43.267Z,9.81
2023-05-01T06:50:50.826Z,9.88
2023-05-01T06:55:58.798Z,9.96
2023-05-01T07:01:07.267Z,10.04
2023-05-01T07:06:16.371Z,10.13
2023-05-01T07:11:23.920Z,10.20
2023-05-01T07:16:31.272Z,10.24
2023-05-01T07:21:38.829Z,10.29
2023-05-01T07:26:46.760Z,10.33
2023-05-01T07:31:54.100Z,10.40
2023-05-01T07:37:02.246Z,10.48
2023-05-01T07:42:09.872Z,10.60
2023-05-01T07:47:17.546Z,10.74
2023-05-01T07:52:24.912Z,10.87
2023-05-01T07:57:34.008Z,10.99
2023-05-01T08:02:41.735Z,11.08
2023-05-01T08:07:49.611Z,11.14
2023-05-01T08:12:56.958Z,11.19
2023-05-01T08:18:04.637Z,11.24
2023-05-01T08:23:12.272Z,11.28
2023-05-01T08:28:21.572Z,11.31
2023-05-01T08:33:28.997Z,11.36
2023-05-01T08:38:36.858Z,11.39
2023-05-01T08:43:45.023Z,11.43
2023-05-01T08:48:53.831Z,11.47
2023-05-01T08:54:03.724Z,11.52
2023-05-01T08:59:13.631Z,11.56
2023-05-01T09:04:21.924Z,11.62
2023-05-01T09:09:29.590Z,11.68
2023-05-01T09:14:37.538Z,11.74
2023-05-01T09:19:45.672Z,11.79
2023-05-01T09:24:52.957Z,11.84
2023-05-01T09:30:00.305Z,11.90
2023-05-01T09:35:18.687Z,11.97
2023-05-01T09:40:32.164Z,12.06
2023-05-01T09:45:40.579Z,12.13
2023-05-01T09:50:48.062Z,12.21
2023-05-01T09:56:04.966Z,12.29
2023-05-01T10:01:12.989Z,12.36
2023-05-01T10:06:32.453Z,12.45
2023-05-01T10:11:54.175Z,12.55
2023-05-01T10:17:01.626Z,12.66
2023-05-01T10:22:09.259Z,12.74
2023-05-01T10:27:17.496Z,12.82
2023-05-01T10:32:25.937Z,12.91
2023-05-01T10:37:40.484Z,13.03
2023-05-01T10:43:17.505Z,13.13
2023-05-01T10:48:57.649Z,13.23
2023-05-01T10:54:27.123Z,13.35
2023-05-01T11:00:15.897Z,13.45
2023-05-01T11:06:07.109Z,13.55
2023-05-01T11:11:53.887Z,13.64
2023-05-01T11:17:01.434Z,13.73
2023-05-01T11:22:16.286Z,13.81
2023-05-01T11:27:25.359Z,13.90
2023-05-01T11:32:33.398Z,13.96
2023-05-01T11:37:48.095Z,14.02
2023-05-01T11:43:03.326Z,14.08
2023-05-01T11:48:18.316Z,14.15
2023-05-01T11:53:26.098Z,14.23
2023-05-01T11:58:37.544Z,14.32
2023-05-01T12:03:48.438Z,14.41
2023-05-01T12:08:56.256Z,14.48
2023-05-01T12:14:07.901Z,14.53
2023-05-01T12:19:17.816Z,14.59
2023-05-01T12:24:25.153Z,14.65
2023-05-01T12:29:45.136Z,14.71
2023-05-01T12:34:52.657Z,14.78
2023-05-01T12:40:01.222Z,14.89
2023-05-01T12:45:12.985Z,15.01
2023-05-01T12:50:21.388Z,15.13
2023-05-01T12:55:29.058Z,15.27
2023-05-01T13:00:50.261Z,15.40
2023-05-01T13:06:02.554Z,15.48
2023-05-01T13:11:16.699Z,15.58
2023-05-01T13:16:25.194Z,15.68
2023-05-01T13:21:33.265Z,15.80
2023-05-01T13:26:40.759Z,15.93
2023-05-01T13:31:49.003Z,16.05
2023-05-01T13:36:57.367Z,16.17
2023-05-01T13:42:06.860Z,16.29
2023-05-01T13:47:16.921Z,16.42
2023-05-01T13:52:24.932Z,16.51
2023-05-01T13:57:35.410Z,16.58
2023-05-01T14:02:48.934Z,16.64
2023-05-01T14:07:58.763Z,16.69
2023-05-01T14:13:06.544Z,16.75
2023-05-01T14:18:17.499Z,16.81
2023-05-01T14:23:25.847Z,16.86
2023-05-01T14:28:33.843Z,16.90
2023-05-01T14:33:45.321Z,16.93
2023-05-01T14:38:53.606Z,16.96
2023-05-01T14:44:02.400Z,16.98
2023-05-01T14:49:10.200Z,16.99
2023-05-01T14:54:18.249Z,16.98
2023-05-01T14:59:26.223Z,16.97
2023-05-01T15:04:34.035Z,16.95
2023-05-01T15:09:46.738Z,16.94
2023-05-01T15:14:54.454Z,16.95
2023-05-01T15:20:01.905Z,16.96
2023-05-01T15:25:11.813Z,16.96
2023-05-01T15:30:19.700Z,16.98
2023-05-01T15:35:28.115Z,16.98
2023-05-01T15:40:35.690Z,16.98
2023-05-01T15:45:43.871Z,16.98
2023-05-01T15:50:51.611Z,16.96
2023-05-01T15:56:01.658Z,16.96
2023-05-01T16:01:09.717Z,16.96
2023-05-01T16:06:17.763Z,16.95
2023-05-01T16:11:26.510Z,16.92
2023-05-01T16:16:35.594Z,16.89
2023-05-01T16:21:44.258Z,16.84
2023-05-01T16:26:52.007Z,16.81
2023-05-01T16:31:59.577Z,16.76
2023-05-01T16:37:07.552Z,16.70
2023-05-01T16:42:16.445Z,16.66
2023-05-01T16:47:24.067Z,16.61
2023-05-01T16:52:31.357Z,16.58
2023-05-01T16:57:38.566Z,16.53
2023-05-01T17:02:49.702Z,16.47
2023-05-01T17:07:57.625Z,16.40
2023-05-01T17:13:06.749Z,16.32
2023-05-01T17:18:14.798Z,16.23
2023-05-01T17:23:23.754Z,16.14
2023-05-01T17:28:31.528Z,16.04
2023-05-01T17:33:39.315Z,15.94
2023-05-01T17:38:46.960Z,15.83
2023-05-01T17:43:55.603Z,15.71
2023-05-01T17:49:03.461Z,15.59
2023-05-01T17:54:11.042Z,15.45
2023-05-01T17:59:19.087Z,15.32
2023-05-01T18:04:26.766Z,15.19
2023-05-01T18:09:34.120Z,15.04
2023-05-01T18:14:41.541Z,14.89
2023-05-01T18:19:49.198Z,14.72
2023-05-01T18:24:57.131Z,14.55
2023-05-01T18:30:04.529Z,14.35
2023-05-01T18:35:14.180Z,14.15
2023-05-01T18:40:21.698Z,13.93
2023-05-01T18:45:29.207Z,13.70
2023-05-01T18:50:36.517Z,13.46
2023-05-01T18:55:44.124Z,13.22
2023-05-01T19:00:51.651Z,12.97
2023-05-01T19:05:59.348Z,12.73
2023-05-01T19:11:07.644Z,12.49
2023-05-01T19:16:16.760Z,12.26
2023-05-01T19:21:24.643Z,12.03
2023-05-01T19:26:33.076Z,11.81
2023-05-01T19:31:40.590Z,11.60
2023-05-01T19:36:47.867Z,11.39
2023-05-01T19:41:55.330Z,11.21
2023-05-01T19:47:02.439Z,11.05
2023-05-01T19:52:10.713Z,10.90
2023-05-01T19:57:18.050Z,10.75
2023-05-01T20:02:25.463Z,10.62
2023-05-01T20:07:32.998Z,10.50
2023-05-01T20:12:40.463Z,10.38
2023-05-01T20:17:50.755Z,10.28
2023-05-01T20:23:13.211Z,10.19
2023-05-01T20:28:21.115Z,10.13
2023-05-01T20:33:28.516Z,10.09
2023-05-01T20:38:41.555Z,10.05
2023-05-01T20:43:49.116Z,10.02
2023-05-01T20:48:56.501Z,9.99
2023-05-01T20:54:03.999Z,9.97
2023-05-01T20:59:11.392Z,9.96
2023-05-01T21:04:19.109Z,9.94
2023-05-01T21:09:26.792Z,9.93
2023-05-01T21:14:34.669Z,9.92
2023-05-01T21:19:47.574Z,9.92
2023-05-01T21:24:56.756Z,9.91
2023-05-01T21:30:05.822Z,9.91
2023-05-01T21:35:17.307Z,9.90
2023-05-01T21:40:26.770Z,9.89
2023-05-01T21:45:40.813Z,9.87
2023-05-01T21:50:51.833Z,9.86
2023-05-01T21:55:59.349Z,9.84
2023-05-01T22:01:07.908Z,9.81
2023-05-01T22:06:15.336Z,9.79
2023-05-01T22:11:24.875Z,9.76
2023-05-01T22:16:32.156Z,9.74
2023-05-01T22:21:39.664Z,9.71
2023-05-01T22:26:47.642Z,9.69
2023-05-01T22:31:54.996Z,9.65
2023-05-01T22:37:02.413Z,9.63
2023-05-01T22:42:09.921Z,9.61
2023-05-01T22:47:17.516Z,9.59
2023-05-01T22:52:24.886Z,9.57
2023-05-01T22:57:32.054Z,9.55
2023-05-01T23:02:39.465Z,9.54
2023-05-01T23:07:47.033Z,9.54
2023-05-01T23:12:54.674Z,9.54
2023-05-01T23:18:02.195Z,9.53
2023-05-01T23:23:15.457Z,9.53
2023-05-01T23:28:27.030Z,9.52
2023-05-01T23:33:38.387Z,9.52
2023-05-01T23:38:45.757Z,9.51
2023-05-01T23:43:53.696Z,9.51
2023-05-01T23:49:01.267Z,9.50
2023-05-01T23:54:08.816Z,9.49
2023-05-01T23:59:16.366Z,9.48
